createdAt,value
2022-12-12T00:01:46.266Z,7.10
2022-12-12T00:04:31.686Z,7.50
2022-12-12T00:07:17.075Z,8.33
2022-12-12T00:10:02.504Z,7.53
2022-12-12T00:12:50.786Z,7.40
2022-12-12T00:15:36.619Z,8.20
2022-12-12T00:18:25.288Z,8.27
2022-12-12T00:21:21.871Z,7.93
2022-12-12T00:24:07.645Z,7.10
2022-12-12T00:26:55.493Z,7.67
2022-12-12T00:29:40.797Z,8.57
2022-12-12T00:32:26.164Z,7.07
2022-12-12T00:35:13.859Z,8.20
2022-12-12T00:37:59.534Z,8.97
2022-12-12T00:40:46.114Z,7.47
2022-12-12T00:43:33.471Z,6.87
2022-12-12T00:46:25.994Z,7.80
2022-12-12T00:49:13.136Z,8.00
2022-12-12T00:51:58.778Z,7.20
2022-12-12T00:54:44.086Z,8.63
2022-12-12T00:57:29.275Z,7.40
2022-12-12T01:00:15.588Z,7.97
2022-12-12T01:03:00.892Z,7.77
2022-12-12T01:05:46.975Z,7.27
2022-12-12T01:08:32.406Z,7.10
2022-12-12T01:11:19.113Z,6.67
2022-12-12T01:14:07.429Z,7.50
2022-12-12T01:16:52.866Z,6.57
2022-12-12T01:19:41.288Z,7.70
2022-12-12T01:22:31.904Z,6.70
2022-12-12T01:25:18.522Z,8.20
2022-12-12T01:28:04.278Z,7.70
2022-12-12T01:30:49.505Z,7.10
2022-12-12T01:33:35.595Z,7.70
2022-12-12T01:36:23.249Z,7.50
2022-12-12T01:39:08.612Z,8.77
2022-12-12T01:41:54.031Z,6.87
2022-12-12T01:44:54.155Z,8.33
2022-12-12T01:47:41.648Z,7.83
2022-12-12T01:50:27.028Z,6.80
2022-12-12T01:53:16.120Z,7.47
2022-12-12T01:56:08.978Z,8.23
2022-12-12T01:58:56.277Z,8.00
2022-12-12T02:01:42.199Z,7.10
2022-12-12T02:04:28.447Z,7.53
2022-12-12T02:07:13.703Z,6.47
2022-12-12T02:09:59.170Z,6.17
2022-12-12T02:12:47.168Z,6.30
2022-12-12T02:15:55.268Z,7.30
2022-12-12T02:18:57.222Z,7.20
2022-12-12T02:21:59.340Z,6.70
2022-12-12T02:25:05.541Z,7.27
2022-12-12T02:28:18.116Z,8.23
2022-12-12T02:31:20.222Z,7.23
2022-12-12T02:34:30.894Z,6.37
2022-12-12T02:37:41.028Z,7.77
2022-12-12T02:40:55.353Z,8.27
2022-12-12T02:43:49.744Z,7.20
2022-12-12T02:46:51.137Z,8.53
2022-12-12T02:50:02.842Z,7.20
2022-12-12T02:52:51.149Z,7.70
2022-12-12T02:55:36.826Z,7.10
2022-12-12T02:58:22.435Z,7.07
2022-12-12T03:01:33.190Z,7.60
2022-12-12T03:05:17.370Z,6.83
2022-12-12T03:08:24.250Z,7.30
2022-12-12T03:11:16.093Z,6.80
2022-12-12T03:14:38.617Z,7.53
2022-12-12T03:17:36.931Z,7.93
2022-12-12T03:20:25.688Z,7.60
2022-12-12T03:23:25.938Z,6.50
2022-12-12T03:26:17.329Z,7.43
2022-12-12T03:29:14.182Z,8.20
2022-12-12T03:32:08.947Z,7.80
2022-12-12T03:35:07.092Z,6.90
2022-12-12T03:38:01.381Z,8.43
2022-12-12T03:40:52.122Z,6.27
2022-12-12T03:44:08.083Z,7.90
2022-12-12T03:47:16.378Z,7.83
2022-12-12T03:50:16.971Z,7.27
2022-12-12T03:53:22.590Z,7.30
2022-12-12T03:56:33.442Z,7.73
2022-12-12T03:59:27.450Z,7.40
2022-12-12T04:02:20.727Z,7.00
2022-12-12T04:05:29.058Z,6.70
2022-12-12T04:08:18.694Z,6.30
2022-12-12T04:11:35.221Z,7.40
2022-12-12T04:14:41.942Z,6.40
2022-12-12T04:17:40.594Z,5.80
2022-12-12T04:21:07.880Z,6.43
2022-12-12T04:24:07.157Z,7.97
2022-12-12T04:27:13.764Z,7.47
2022-12-12T04:29:59.223Z,6.90
2022-12-12T04:33:11.560Z,8.30
2022-12-12T04:35:58.793Z,7.47
2022-12-12T04:38:46.851Z,6.53
2022-12-12T04:41:35.094Z,7.00
2022-12-12T04:44:24.403Z,6.27
2022-12-12T04:47:11.463Z,6.87
2022-12-12T04:49:59.022Z,5.33
2022-12-12T04:52:46.111Z,7.20
2022-12-12T04:55:36.979Z,6.10
2022-12-12T04:58:23.601Z,5.17
2022-12-12T05:01:21.394Z,5.90
2022-12-12T05:04:21.282Z,5.13
2022-12-12T05:07:25.034Z,5.77
2022-12-12T05:10:18.381Z,5.63
2022-12-12T05:13:03.891Z,5.77
2022-12-12T05:15:53.045Z,5.37
2022-12-12T05:18:38.321Z,5.23
2022-12-12T05:21:23.695Z,4.60
2022-12-12T05:24:09.408Z,4.97
2022-12-12T05:26:57.160Z,4.50
2022-12-12T05:29:42.425Z,4.50
2022-12-12T05:32:30.625Z,3.63
2022-12-12T05:35:16.834Z,4.10
2022-12-12T05:38:09.576Z,3.70
2022-12-12T05:40:54.895Z,2.93
2022-12-12T05:43:40.486Z,3.67
2022-12-12T05:46:26.264Z,4.50
2022-12-12T05:49:11.671Z,3.70
2022-12-12T05:51:57.267Z,3.47
2022-12-12T05:54:44.930Z,3.20
2022-12-12T05:57:30.061Z,3.37
2022-12-12T06:00:16.109Z,2.63
2022-12-12T06:03:04.527Z,3.63
2022-12-12T06:05:49.796Z,3.80
2022-12-12T06:08:35.521Z,2.83
2022-12-12T06:11:21.253Z,3.30
2022-12-12T06:14:08.673Z,3.33
2022-12-12T06:16:54.121Z,3.70
2022-12-12T06:19:39.639Z,4.10
2022-12-12T06:22:25.254Z,2.83
2022-12-12T06:25:14.479Z,3.80
2022-12-12T06:28:00.613Z,2.90
2022-12-12T06:30:48.272Z,2.50
2022-12-12T06:33:35.616Z,2.13
2022-12-12T06:36:29.020Z,2.63
2022-12-12T06:39:15.118Z,2.83
2022-12-12T06:42:01.808Z,2.97
2022-12-12T06:44:49.158Z,2.80
2022-12-12T06:47:37.578Z,3.00
2022-12-12T06:50:24.089Z,3.03
2022-12-12T06:53:09.536Z,3.57
2022-12-12T06:55:57.683Z,3.07
2022-12-12T06:58:43.799Z,2.50
2022-12-12T07:01:29.410Z,3.03
2022-12-12T07:04:17.506Z,2.97
2022-12-12T07:07:02.748Z,2.80
2022-12-12T07:09:48.568Z,3.40
2022-12-12T07:12:34.637Z,2.93
2022-12-12T07:15:20.187Z,2.77
2022-12-12T07:18:08.058Z,3.03
2022-12-12T07:20:58.393Z,3.50
2022-12-12T07:23:44.052Z,3.70
2022-12-12T07:26:29.848Z,2.40
2022-12-12T07:29:15.830Z,2.87
2022-12-12T07:32:03.469Z,2.60
2022-12-12T07:34:51.445Z,3.50
2022-12-12T07:37:41.395Z,3.67
2022-12-12T07:40:29.007Z,3.30
2022-12-12T07:43:14.543Z,2.90
2022-12-12T07:45:59.887Z,3.10
2022-12-12T07:48:46.037Z,3.53
2022-12-12T07:51:32.195Z,3.37
2022-12-12T07:54:20.481Z,2.80
2022-12-12T07:57:06.046Z,4.20
2022-12-12T07:59:51.971Z,3.87
2022-12-12T08:02:37.976Z,2.93
2022-12-12T08:05:23.337Z,2.90
2022-12-12T08:08:09.490Z,3.03
2022-12-12T08:10:59.903Z,3.47
2022-12-12T08:13:45.410Z,3.20
2022-12-12T08:16:33.163Z,3.70
2022-12-12T08:19:19.207Z,4.00
2022-12-12T08:22:08.501Z,3.80
2022-12-12T08:24:53.840Z,3.03
2022-12-12T08:27:39.478Z,3.40
2022-12-12T08:30:27.100Z,4.07
2022-12-12T08:33:13.085Z,5.57
2022-12-12T08:35:58.942Z,5.13
2022-12-12T08:38:45.509Z,5.17
2022-12-12T08:41:39.539Z,5.07
2022-12-12T08:44:24.872Z,3.73
2022-12-12T08:47:10.656Z,3.20
2022-12-12T08:49:58.176Z,3.63
2022-12-12T08:52:43.663Z,4.17
2022-12-12T08:55:29.231Z,3.50
2022-12-12T08:58:17.224Z,3.50
2022-12-12T09:01:09.283Z,2.90
2022-12-12T09:03:56.275Z,2.50
2022-12-12T09:06:45.758Z,2.70
2022-12-12T09:09:31.585Z,2.60
2022-12-12T09:12:19.112Z,2.20
2022-12-12T09:15:06.091Z,2.27
2022-12-12T09:17:51.784Z,2.20
2022-12-12T09:20:37.242Z,3.20
2022-12-12T09:23:24.670Z,2.40
2022-12-12T09:26:13.611Z,2.03
2022-12-12T09:28:59.587Z,1.90
2022-12-12T09:31:45.178Z,2.20
2022-12-12T09:34:30.807Z,2.73
2022-12-12T09:37:19.010Z,2.80
2022-12-12T09:40:04.628Z,2.27
2022-12-12T09:42:51.905Z,3.27
2022-12-12T09:45:41.411Z,2.97
2022-12-12T09:48:41.991Z,2.53
2022-12-12T09:51:30.207Z,2.30
2022-12-12T09:54:26.684Z,2.40
2022-12-12T09:57:36.339Z,2.67
2022-12-12T10:00:21.657Z,2.40
2022-12-12T10:03:22.498Z,2.20
2022-12-12T10:06:36.593Z,2.30
2022-12-12T10:09:54.307Z,2.57
2022-12-12T10:12:42.449Z,2.90
2022-12-12T10:15:45.888Z,2.57
2022-12-12T10:18:37.711Z,2.57
2022-12-12T10:21:32.281Z,2.17
2022-12-12T10:24:37.064Z,1.97
2022-12-12T10:27:23.519Z,2.40
2022-12-12T10:30:20.650Z,2.00
2022-12-12T10:33:23.019Z,2.17
2022-12-12T10:36:34.166Z,2.07
2022-12-12T10:39:21.499Z,2.00
2022-12-12T10:42:18.239Z,2.10
2022-12-12T10:45:22.349Z,1.80
2022-12-12T10:48:08.420Z,1.80
2022-12-12T10:51:02.208Z,2.10
2022-12-12T10:53:48.563Z,1.87
2022-12-12T10:56:36.271Z,1.83
2022-12-12T10:59:23.205Z,1.73
2022-12-12T11:02:38.763Z,1.70
2022-12-12T11:05:31.516Z,2.30
2022-12-12T11:08:23.707Z,2.00
2022-12-12T11:11:28.952Z,1.93
2022-12-12T11:14:27.952Z,1.80
2022-12-12T11:17:24.609Z,2.27
2022-12-12T11:20:18.070Z,2.60
2022-12-12T11:23:03.758Z,2.60
2022-12-12T11:25:56.827Z,1.97
2022-12-12T11:28:46.386Z,2.10
2022-12-12T11:31:34.596Z,1.93
2022-12-12T11:34:22.411Z,2.30
2022-12-12T11:37:18.468Z,2.50
2022-12-12T11:40:06.112Z,2.20
2022-12-12T11:42:51.784Z,2.40
2022-12-12T11:45:37.095Z,2.57
2022-12-12T11:48:52.497Z,1.80
2022-12-12T11:51:43.334Z,1.87
2022-12-12T11:54:32.159Z,2.23
2022-12-12T11:57:39.072Z,1.80
2022-12-12T12:00:26.002Z,2.30
2022-12-12T12:03:20.373Z,2.80
2022-12-12T12:06:17.673Z,2.80
2022-12-12T12:09:14.413Z,2.43
2022-12-12T12:12:17.427Z,2.63
2022-12-12T12:15:21.532Z,2.17
2022-12-12T12:18:35.366Z,3.60
2022-12-12T12:21:36.925Z,2.70
2022-12-12T12:24:41.263Z,7.70
2022-12-12T12:27:44.606Z,2.70
2022-12-12T12:31:07.845Z,3.50
2022-12-12T12:33:55.762Z,2.80
2022-12-12T12:37:11.420Z,2.23
2022-12-12T12:40:04.014Z,2.10
2022-12-12T12:43:10.603Z,2.10
2022-12-12T12:46:28.320Z,2.60
2022-12-12T12:49:31.407Z,2.20
2022-12-12T12:52:41.220Z,1.73
2022-12-12T12:55:38.541Z,1.93
2022-12-12T12:58:31.065Z,1.83
2022-12-12T13:01:27.830Z,2.00
2022-12-12T13:04:43.977Z,1.80
2022-12-12T13:07:54.954Z,2.20
2022-12-12T13:10:49.964Z,2.57
2022-12-12T13:13:43.036Z,1.97
2022-12-12T13:16:33.213Z,1.87
2022-12-12T13:19:38.133Z,1.50
2022-12-12T13:22:30.634Z,2.27
2022-12-12T13:25:45.751Z,2.17
2022-12-12T13:28:49.353Z,2.60
2022-12-12T13:31:45.102Z,2.07
2022-12-12T13:34:37.906Z,1.90
2022-12-12T13:37:24.318Z,2.17
2022-12-12T13:40:31.490Z,1.77
2022-12-12T13:43:38.791Z,1.73
2022-12-12T13:46:27.478Z,1.90
2022-12-12T13:49:27.478Z,2.07
2022-12-12T13:52:45.760Z,2.17
2022-12-12T13:55:31.520Z,2.30
2022-12-12T13:58:32.903Z,1.83
2022-12-12T14:01:34.535Z,2.23
2022-12-12T14:04:34.566Z,2.10
2022-12-12T14:07:24.045Z,2.17
2022-12-12T14:10:36.530Z,2.13
2022-12-12T14:13:21.860Z,2.67
2022-12-12T14:16:19.923Z,2.50
2022-12-12T14:19:08.727Z,3.00
2022-12-12T14:21:54.309Z,2.13
2022-12-12T14:24:47.851Z,2.37
2022-12-12T14:27:49.279Z,3.07
2022-12-12T14:30:45.103Z,3.37
2022-12-12T14:33:52.816Z,3.13
2022-12-12T14:36:50.512Z,4.23
2022-12-12T14:39:51.460Z,3.87
2022-12-12T14:43:18.619Z,3.57
2022-12-12T14:45:56.952Z,4.20
2022-12-12T14:48:42.942Z,4.90
2022-12-12T14:51:33.750Z,3.90
2022-12-12T14:54:22.724Z,4.30
2022-12-12T14:57:08.493Z,4.80
2022-12-12T14:59:56.942Z,4.13
2022-12-12T15:02:50.015Z,4.00
2022-12-12T15:05:35.559Z,4.23
2022-12-12T15:08:26.394Z,4.87
2022-12-12T15:11:20.936Z,3.33
2022-12-12T15:14:18.056Z,3.77
2022-12-12T15:17:12.353Z,4.27
2022-12-12T15:20:05.860Z,3.50
2022-12-12T15:23:02.256Z,3.77
2022-12-12T15:25:54.364Z,3.77
2022-12-12T15:28:44.665Z,3.23
2022-12-12T15:31:30.487Z,4.63
2022-12-12T15:34:38.233Z,3.33
2022-12-12T15:37:35.088Z,3.43
2022-12-12T15:40:26.329Z,5.97
2022-12-12T15:43:23.424Z,4.10
2022-12-12T15:46:17.000Z,3.60
2022-12-12T15:49:05.142Z,4.67
2022-12-12T15:51:51.180Z,3.53
2022-12-12T15:54:44.470Z,3.40
2022-12-12T15:57:34.680Z,4.17
2022-12-12T16:01:00.671Z,4.67
2022-12-12T16:04:11.412Z,3.60
2022-12-12T16:07:20.264Z,3.77
2022-12-12T16:10:11.819Z,3.47
2022-12-12T16:13:03.090Z,3.20
2022-12-12T16:15:48.621Z,3.87
2022-12-12T16:18:35.207Z,4.03
2022-12-12T16:21:23.198Z,3.93
2022-12-12T16:24:20.973Z,4.00
2022-12-12T16:27:08.694Z,3.87
2022-12-12T16:29:54.219Z,3.67
2022-12-12T16:32:40.045Z,3.20
2022-12-12T16:35:25.636Z,3.80
2022-12-12T16:38:15.973Z,4.07
2022-12-12T16:41:10.651Z,3.37
2022-12-12T16:43:56.778Z,3.87
2022-12-12T16:46:44.295Z,3.70
2022-12-12T16:49:29.815Z,3.00
2022-12-12T16:52:22.900Z,3.50
2022-12-12T16:55:24.631Z,3.67
2022-12-12T16:58:14.432Z,4.07
2022-12-12T17:01:01.707Z,3.57
2022-12-12T17:03:47.295Z,3.20
2022-12-12T17:06:35.579Z,4.00
2022-12-12T17:09:30.000Z,3.50
2022-12-12T17:12:15.786Z,3.40
2022-12-12T17:15:03.466Z,3.40
2022-12-12T17:17:49.882Z,3.67
2022-12-12T17:20:37.918Z,3.47
2022-12-12T17:23:29.920Z,3.77
2022-12-12T17:26:20.838Z,3.40
2022-12-12T17:29:07.639Z,3.63
2022-12-12T17:31:53.337Z,3.30
2022-12-12T17:34:39.118Z,3.97
2022-12-12T17:37:27.019Z,3.63
2022-12-12T17:40:13.441Z,2.93
2022-12-12T17:43:01.180Z,3.30
2022-12-12T17:45:56.155Z,2.80
2022-12-12T17:48:46.015Z,3.00
2022-12-12T17:51:31.845Z,3.20
2022-12-12T17:54:17.633Z,3.30
2022-12-12T17:57:05.598Z,2.60
2022-12-12T17:59:51.514Z,2.60
2022-12-12T18:02:40.158Z,2.60
2022-12-12T18:05:25.847Z,2.47
2022-12-12T18:08:12.583Z,2.73
2022-12-12T18:10:58.632Z,3.00
2022-12-12T18:13:44.749Z,2.60
2022-12-12T18:16:34.147Z,2.23
2022-12-12T18:19:21.644Z,2.20
2022-12-12T18:22:07.212Z,2.33
2022-12-12T18:24:52.691Z,2.20
2022-12-12T18:27:40.218Z,2.60
2022-12-12T18:30:25.769Z,2.13
2022-12-12T18:33:11.310Z,2.50
2022-12-12T18:36:01.083Z,2.73
2022-12-12T18:38:48.090Z,2.67
2022-12-12T18:41:37.069Z,2.27
2022-12-12T18:44:24.682Z,2.20
2022-12-12T18:47:10.199Z,2.70
2022-12-12T18:49:55.587Z,2.80
2022-12-12T18:52:40.963Z,2.10
2022-12-12T18:55:30.438Z,2.33
2022-12-12T18:58:16.345Z,2.73
2022-12-12T19:01:11.293Z,2.03
2022-12-12T19:03:58.774Z,1.93
2022-12-12T19:06:44.701Z,2.43
2022-12-12T19:09:32.458Z,2.23
2022-12-12T19:12:18.295Z,2.37
2022-12-12T19:15:22.002Z,2.20
2022-12-12T19:18:10.159Z,2.20
2022-12-12T19:20:55.733Z,2.80
2022-12-12T19:23:44.421Z,1.90
2022-12-12T19:26:33.371Z,1.90
2022-12-12T19:29:20.663Z,2.20
2022-12-12T19:32:06.433Z,2.73
2022-12-12T19:34:55.306Z,2.37
2022-12-12T19:37:45.875Z,2.90
2022-12-12T19:40:31.334Z,3.10
2022-12-12T19:43:19.138Z,3.10
2022-12-12T19:46:11.670Z,2.83
2022-12-12T19:48:59.691Z,3.53
2022-12-12T19:51:48.401Z,3.30
2022-12-12T19:54:33.814Z,2.63
2022-12-12T19:57:21.108Z,2.50
2022-12-12T20:00:09.755Z,2.83
2022-12-12T20:02:55.489Z,2.90
2022-12-12T20:05:42.337Z,3.00
2022-12-12T20:08:27.945Z,2.50
2022-12-12T20:11:21.106Z,3.10
2022-12-12T20:14:11.962Z,2.80
2022-12-12T20:16:58.686Z,2.73
2022-12-12T20:19:47.329Z,3.63
2022-12-12T20:22:32.850Z,2.80
2022-12-12T20:25:19.061Z,2.63
2022-12-12T20:28:04.870Z,2.53
2022-12-12T20:30:53.425Z,2.30
2022-12-12T20:33:40.742Z,2.27
2022-12-12T20:36:29.085Z,2.40
2022-12-12T20:39:19.679Z,2.37
2022-12-12T20:42:05.236Z,2.40
2022-12-12T20:44:53.224Z,3.43
2022-12-12T20:47:38.529Z,3.40
2022-12-12T20:50:24.446Z,4.23
2022-12-12T20:53:12.149Z,4.10
2022-12-12T20:56:11.056Z,3.53
2022-12-12T20:59:01.944Z,3.90
2022-12-12T21:01:47.634Z,4.13
2022-12-12T21:04:34.672Z,5.37
2022-12-12T21:07:22.867Z,5.80
2022-12-12T21:10:08.649Z,5.83
2022-12-12T21:12:56.621Z,5.20
2022-12-12T21:15:43.998Z,6.00
2022-12-12T21:18:29.305Z,6.77
2022-12-12T21:21:14.797Z,6.13
2022-12-12T21:24:02.761Z,5.47
2022-12-12T21:26:51.146Z,6.07
2022-12-12T21:29:36.657Z,5.80
2022-12-12T21:32:22.345Z,6.60
2022-12-12T21:35:09.350Z,4.50
2022-12-12T21:37:57.209Z,5.40
2022-12-12T21:40:42.714Z,5.07
2022-12-12T21:43:29.904Z,5.33
2022-12-12T21:46:25.714Z,5.57
2022-12-12T21:49:26.257Z,5.20
2022-12-12T21:52:15.644Z,4.10
2022-12-12T21:55:01.979Z,4.40
2022-12-12T21:57:47.256Z,4.17
2022-12-12T22:00:40.168Z,3.73
2022-12-12T22:03:28.943Z,3.50
2022-12-12T22:06:19.240Z,3.57
2022-12-12T22:09:07.635Z,2.80
2022-12-12T22:12:03.642Z,3.20
2022-12-12T22:14:49.811Z,3.67
2022-12-12T22:17:35.419Z,3.30
2022-12-12T22:20:21.260Z,4.17
2022-12-12T22:23:07.756Z,4.03
2022-12-12T22:25:53.161Z,3.30
2022-12-12T22:28:40.720Z,3.47
2022-12-12T22:31:28.960Z,2.73
2022-12-12T22:34:20.504Z,3.83
2022-12-12T22:37:06.171Z,3.60
2022-12-12T22:39:51.550Z,4.37
2022-12-12T22:42:37.147Z,3.33
2022-12-12T22:45:22.572Z,3.07
2022-12-12T22:48:08.648Z,3.40
2022-12-12T22:50:54.252Z,3.10
2022-12-12T22:53:47.275Z,4.03
2022-12-12T22:56:37.393Z,3.70
2022-12-12T22:59:25.065Z,3.80
2022-12-12T23:02:10.304Z,4.30
2022-12-12T23:04:58.196Z,4.30
2022-12-12T23:07:46.084Z,3.73
2022-12-12T23:10:31.419Z,4.17
2022-12-12T23:13:17.199Z,4.27
2022-12-12T23:16:20.507Z,3.80
2022-12-12T23:19:07.190Z,4.23
2022-12-12T23:21:52.591Z,4.10
2022-12-12T23:24:43.544Z,3.63
2022-12-12T23:27:29.081Z,4.40
2022-12-12T23:30:14.748Z,4.50
2022-12-12T23:33:02.918Z,4.30
2022-12-12T23:35:49.502Z,4.03
2022-12-12T23:38:40.546Z,4.33
2022-12-12T23:41:26.695Z,3.60
2022-12-12T23:44:18.272Z,3.67
2022-12-12T23:47:04.002Z,3.27
2022-12-12T23:49:49.337Z,4.50
2022-12-12T23:52:34.613Z,4.60
2022-12-12T23:55:20.064Z,4.00
2022-12-12T23:58:05.783Z,4.20
